sensor_id;sensor_type;location;lat;lon;timestamp;P1;durP1;ratioP1;P2;durP2;ratioP2
10465;SDS011;5280;42.600;23.556;2024-02-26T00:01:39;9.17;;;7.50;;
10465;SDS011;5280;42.600;23.556;2024-02-26T00:04:06;10.60;;;8.50;;
10465;SDS011;5280;42.600;23.556;2024-02-26T00:06:33;13.63;;;8.23;;
10465;SDS011;5280;42.600;23.556;2024-02-26T00:09:02;9.43;;;8.53;;
10465;SDS011;5280;42.600;23.556;2024-02-26T00:11:31;9.97;;;8.90;;
10465;SDS011;5280;42.600;23.556;2024-02-26T00:13:58;13.80;;;8.90;;
10465;SDS011;5280;42.600;23.556;2024-02-26T00:16:29;10.90;;;8.00;;
10465;SDS011;5280;42.600;23.556;2024-02-26T00:18:57;13.17;;;8.90;;
10465;SDS011;5280;42.600;23.556;2024-02-26T00:21:24;10.30;;;9.20;;
10465;SDS011;5280;42.600;23.556;2024-02-26T00:23:52;11.50;;;8.57;;
10465;SDS011;5280;42.600;23.556;2024-02-26T00:26:19;10.30;;;9.27;;
10465;SDS011;5280;42.600;23.556;2024-02-26T00:28:46;10.90;;;8.87;;
10465;SDS011;5280;42.600;23.556;2024-02-26T00:31:13;9.50;;;8.27;;
10465;SDS011;5280;42.600;23.556;2024-02-26T00:33:42;8.80;;;8.00;;
10465;SDS011;5280;42.600;23.556;2024-02-26T00:36:09;11.50;;;7.83;;
10465;SDS011;5280;42.600;23.556;2024-02-26T00:38:37;9.20;;;8.30;;
10465;SDS011;5280;42.600;23.556;2024-02-26T00:41:04;8.80;;;7.80;;
10465;SDS011;5280;42.600;23.556;2024-02-26T00:43:31;8.73;;;7.90;;
10465;SDS011;5280;42.600;23.556;2024-02-26T00:45:58;10.20;;;7.90;;
10465;SDS011;5280;42.600;23.556;2024-02-26T00:48:25;13.47;;;8.73;;
10465;SDS011;5280;42.600;23.556;2024-02-26T00:50:54;10.60;;;8.83;;
10465;SDS011;5280;42.600;23.556;2024-02-26T00:53:21;10.33;;;8.80;;
10465;SDS011;5280;42.600;23.556;2024-02-26T00:55:50;10.70;;;8.10;;
10465;SDS011;5280;42.600;23.556;2024-02-26T00:58:18;9.83;;;8.00;;
10465;SDS011;5280;42.600;23.556;2024-02-26T01:00:45;11.20;;;8.00;;
10465;SDS011;5280;42.600;23.556;2024-02-26T01:03:12;9.10;;;8.30;;
10465;SDS011;5280;42.600;23.556;2024-02-26T01:05:39;8.80;;;7.90;;
10465;SDS011;5280;42.600;23.556;2024-02-26T01:08:10;11.07;;;8.57;;
10465;SDS011;5280;42.600;23.556;2024-02-26T01:10:39;11.37;;;8.03;;
10465;SDS011;5280;42.600;23.556;2024-02-26T01:13:06;9.00;;;8.10;;
10465;SDS011;5280;42.600;23.556;2024-02-26T01:15:33;11.80;;;8.37;;
10465;SDS011;5280;42.600;23.556;2024-02-26T01:18:00;8.83;;;8.03;;
10465;SDS011;5280;42.600;23.556;2024-02-26T01:20:27;11.77;;;9.50;;
10465;SDS011;5280;42.600;23.556;2024-02-26T01:22:54;9.77;;;8.13;;
10465;SDS011;5280;42.600;23.556;2024-02-26T01:25:25;13.20;;;8.30;;
10465;SDS011;5280;42.600;23.556;2024-02-26T01:27:55;9.87;;;8.13;;
10465;SDS011;5280;42.600;23.556;2024-02-26T01:30:22;10.87;;;7.80;;
10465;SDS011;5280;42.600;23.556;2024-02-26T01:32:49;9.77;;;7.93;;
10465;SDS011;5280;42.600;23.556;2024-02-26T01:35:16;10.17;;;7.40;;
10465;SDS011;5280;42.600;23.556;2024-02-26T01:37:44;7.67;;;6.97;;
10465;SDS011;5280;42.600;23.556;2024-02-26T01:40:12;8.20;;;7.40;;
10465;SDS011;5280;42.600;23.556;2024-02-26T01:42:45;8.60;;;6.63;;
10465;SDS011;5280;42.600;23.556;2024-02-26T01:45:12;7.80;;;6.53;;
10465;SDS011;5280;42.600;23.556;2024-02-26T01:47:49;10.03;;;7.17;;
10465;SDS011;5280;42.600;23.556;2024-02-26T01:50:17;8.20;;;7.40;;
10465;SDS011;5280;42.600;23.556;2024-02-26T01:52:44;9.93;;;6.93;;
10465;SDS011;5280;42.600;23.556;2024-02-26T01:55:13;10.20;;;7.07;;
10465;SDS011;5280;42.600;23.556;2024-02-26T01:57:40;7.20;;;6.50;;
10465;SDS011;5280;42.600;23.556;2024-02-26T02:00:10;11.27;;;7.73;;
10465;SDS011;5280;42.600;23.556;2024-02-26T02:02:39;8.73;;;6.67;;
10465;SDS011;5280;42.600;23.556;2024-02-26T02:05:07;8.07;;;7.27;;
10465;SDS011;5280;42.600;23.556;2024-02-26T02:07:35;8.90;;;7.80;;
10465;SDS011;5280;42.600;23.556;2024-02-26T02:10:02;9.07;;;6.60;;
10465;SDS011;5280;42.600;23.556;2024-02-26T02:12:32;14.37;;;7.63;;
10465;SDS011;5280;42.600;23.556;2024-02-26T02:14:59;7.80;;;7.07;;
10465;SDS011;5280;42.600;23.556;2024-02-26T02:17:28;8.13;;;6.87;;
10465;SDS011;5280;42.600;23.556;2024-02-26T02:19:57;7.83;;;6.80;;
10465;SDS011;5280;42.600;23.556;2024-02-26T02:22:29;10.30;;;6.97;;
10465;SDS011;5280;42.600;23.556;2024-02-26T02:24:57;8.80;;;6.57;;
10465;SDS011;5280;42.600;23.556;2024-02-26T02:27:24;9.37;;;6.30;;
10465;SDS011;5280;42.600;23.556;2024-02-26T02:29:55;8.53;;;6.43;;
10465;SDS011;5280;42.600;23.556;2024-02-26T02:32:22;7.33;;;6.40;;
10465;SDS011;5280;42.600;23.556;2024-02-26T02:34:55;8.97;;;6.43;;
10465;SDS011;5280;42.600;23.556;2024-02-26T02:37:23;6.47;;;5.87;;
10465;SDS011;5280;42.600;23.556;2024-02-26T02:39:54;6.73;;;6.13;;
10465;SDS011;5280;42.600;23.556;2024-02-26T02:42:24;6.70;;;6.00;;
10465;SDS011;5280;42.600;23.556;2024-02-26T02:44:51;7.23;;;6.13;;
10465;SDS011;5280;42.600;23.556;2024-02-26T02:47:18;7.70;;;6.70;;
10465;SDS011;5280;42.600;23.556;2024-02-26T02:49:45;7.87;;;5.87;;
10465;SDS011;5280;42.600;23.556;2024-02-26T02:52:11;8.03;;;6.20;;
10465;SDS011;5280;42.600;23.556;2024-02-26T02:54:38;6.23;;;5.63;;
10465;SDS011;5280;42.600;23.556;2024-02-26T02:57:08;10.03;;;5.83;;
10465;SDS011;5280;42.600;23.556;2024-02-26T02:59:35;6.63;;;5.93;;
10465;SDS011;5280;42.600;23.556;2024-02-26T03:02:03;6.53;;;5.67;;
10465;SDS011;5280;42.600;23.556;2024-02-26T03:04:34;7.57;;;5.60;;
10465;SDS011;5280;42.600;23.556;2024-02-26T03:07:01;5.60;;;5.10;;
10465;SDS011;5280;42.600;23.556;2024-02-26T03:09:28;6.63;;;5.30;;
10465;SDS011;5280;42.600;23.556;2024-02-26T03:12:01;5.87;;;5.37;;
10465;SDS011;5280;42.600;23.556;2024-02-26T03:14:29;7.73;;;5.37;;
10465;SDS011;5280;42.600;23.556;2024-02-26T03:16:56;8.77;;;5.20;;
10465;SDS011;5280;42.600;23.556;2024-02-26T03:19:24;6.33;;;5.73;;
10465;SDS011;5280;42.600;23.556;2024-02-26T03:21:50;5.30;;;4.80;;
10465;SDS011;5280;42.600;23.556;2024-02-26T03:24:20;7.23;;;4.43;;
10465;SDS011;5280;42.600;23.556;2024-02-26T03:26:47;5.17;;;4.67;;
10465;SDS011;5280;42.600;23.556;2024-02-26T03:29:14;4.93;;;4.53;;
10465;SDS011;5280;42.600;23.556;2024-02-26T03:31:42;6.37;;;4.70;;
10465;SDS011;5280;42.600;23.556;2024-02-26T03:34:10;5.27;;;4.33;;
10465;SDS011;5280;42.600;23.556;2024-02-26T03:36:39;5.13;;;4.20;;
10465;SDS011;5280;42.600;23.556;2024-02-26T03:39:08;6.93;;;4.17;;
10465;SDS011;5280;42.600;23.556;2024-02-26T03:41:35;6.80;;;4.30;;
10465;SDS011;5280;42.600;23.556;2024-02-26T03:44:02;5.97;;;4.57;;
10465;SDS011;5280;42.600;23.556;2024-02-26T03:46:29;5.23;;;4.47;;
10465;SDS011;5280;42.600;23.556;2024-02-26T03:48:58;5.17;;;4.20;;
10465;SDS011;5280;42.600;23.556;2024-02-26T03:51:25;5.53;;;4.70;;
10465;SDS011;5280;42.600;23.556;2024-02-26T03:53:56;5.07;;;4.60;;
10465;SDS011;5280;42.600;23.556;2024-02-26T03:56:23;5.87;;;4.67;;
10465;SDS011;5280;42.600;23.556;2024-02-26T03:58:50;6.00;;;5.20;;
10465;SDS011;5280;42.600;23.556;2024-02-26T04:01:17;5.60;;;5.10;;
10465;SDS011;5280;42.600;23.556;2024-02-26T04:03:44;8.00;;;5.30;;
10465;SDS011;5280;42.600;23.556;2024-02-26T04:06:16;6.27;;;4.97;;
10465;SDS011;5280;42.600;23.556;2024-02-26T04:08:47;7.53;;;5.20;;
10465;SDS011;5280;42.600;23.556;2024-02-26T04:11:14;7.60;;;5.73;;
10465;SDS011;5280;42.600;23.556;2024-02-26T04:13:43;8.17;;;5.30;;
10465;SDS011;5280;42.600;23.556;2024-02-26T04:16:11;6.63;;;5.27;;
10465;SDS011;5280;42.600;23.556;2024-02-26T04:18:38;5.83;;;5.10;;
10465;SDS011;5280;42.600;23.556;2024-02-26T04:21:08;6.37;;;5.70;;
10465;SDS011;5280;42.600;23.556;2024-02-26T04:23:39;6.97;;;4.90;;
10465;SDS011;5280;42.600;23.556;2024-02-26T04:26:06;6.30;;;5.00;;
10465;SDS011;5280;42.600;23.556;2024-02-26T04:28:33;8.97;;;5.43;;
10465;SDS011;5280;42.600;23.556;2024-02-26T04:31:01;7.63;;;5.60;;
10465;SDS011;5280;42.600;23.556;2024-02-26T04:33:28;5.63;;;4.83;;
10465;SDS011;5280;42.600;23.556;2024-02-26T04:35:55;7.53;;;5.50;;
10465;SDS011;5280;42.600;23.556;2024-02-26T04:38:22;6.60;;;4.80;;
10465;SDS011;5280;42.600;23.556;2024-02-26T04:40:50;6.43;;;4.73;;
10465;SDS011;5280;42.600;23.556;2024-02-26T04:43:17;5.27;;;4.63;;
10465;SDS011;5280;42.600;23.556;2024-02-26T04:45:45;6.00;;;5.10;;
10465;SDS011;5280;42.600;23.556;2024-02-26T04:48:12;6.97;;;4.77;;
10465;SDS011;5280;42.600;23.556;2024-02-26T04:50:39;5.27;;;4.43;;
10465;SDS011;5280;42.600;23.556;2024-02-26T04:53:06;5.07;;;4.57;;
10465;SDS011;5280;42.600;23.556;2024-02-26T04:55:33;8.10;;;4.67;;
10465;SDS011;5280;42.600;23.556;2024-02-26T04:58:04;4.17;;;3.87;;
10465;SDS011;5280;42.600;23.556;2024-02-26T05:00:32;7.33;;;4.30;;
10465;SDS011;5280;42.600;23.556;2024-02-26T05:02:59;4.60;;;4.17;;
10465;SDS011;5280;42.600;23.556;2024-02-26T05:05:25;5.03;;;3.97;;
10465;SDS011;5280;42.600;23.556;2024-02-26T05:07:54;5.30;;;4.20;;
10465;SDS011;5280;42.600;23.556;2024-02-26T05:10:21;5.73;;;4.33;;
10465;SDS011;5280;42.600;23.556;2024-02-26T05:12:48;5.10;;;4.50;;
10465;SDS011;5280;42.600;23.556;2024-02-26T05:15:18;5.90;;;4.67;;
10465;SDS011;5280;42.600;23.556;2024-02-26T05:17:45;5.60;;;4.57;;
10465;SDS011;5280;42.600;23.556;2024-02-26T05:20:13;6.43;;;4.40;;
10465;SDS011;5280;42.600;23.556;2024-02-26T05:22:40;6.97;;;4.67;;
10465;SDS011;5280;42.600;23.556;2024-02-26T05:25:07;7.40;;;4.50;;
10465;SDS011;5280;42.600;23.556;2024-02-26T05:27:37;5.67;;;4.27;;
10465;SDS011;5280;42.600;23.556;2024-02-26T05:30:05;7.90;;;4.50;;
10465;SDS011;5280;42.600;23.556;2024-02-26T05:32:35;4.23;;;3.83;;
10465;SDS011;5280;42.600;23.556;2024-02-26T05:35:02;4.90;;;4.33;;
10465;SDS011;5280;42.600;23.556;2024-02-26T05:37:31;5.07;;;4.60;;
10465;SDS011;5280;42.600;23.556;2024-02-26T05:39:58;4.73;;;4.23;;
10465;SDS011;5280;42.600;23.556;2024-02-26T05:42:26;4.53;;;4.13;;
10465;SDS011;5280;42.600;23.556;2024-02-26T05:44:53;6.47;;;4.97;;
10465;SDS011;5280;42.600;23.556;2024-02-26T05:47:25;4.90;;;4.40;;
10465;SDS011;5280;42.600;23.556;2024-02-26T05:49:54;5.97;;;4.73;;
10465;SDS011;5280;42.600;23.556;2024-02-26T05:52:24;5.90;;;4.70;;
10465;SDS011;5280;42.600;23.556;2024-02-26T05:54:51;6.57;;;5.20;;
10465;SDS011;5280;42.600;23.556;2024-02-26T05:57:18;5.57;;;4.63;;
10465;SDS011;5280;42.600;23.556;2024-02-26T05:59:45;6.33;;;5.20;;
10465;SDS011;5280;42.600;23.556;2024-02-26T06:02:11;6.37;;;5.03;;
10465;SDS011;5280;42.600;23.556;2024-02-26T06:04:39;5.40;;;4.73;;
10465;SDS011;5280;42.600;23.556;2024-02-26T06:07:07;4.87;;;4.40;;
10465;SDS011;5280;42.600;23.556;2024-02-26T06:09:34;4.50;;;4.10;;
10465;SDS011;5280;42.600;23.556;2024-02-26T06:12:05;6.27;;;4.00;;
10465;SDS011;5280;42.600;23.556;2024-02-26T06:14:32;5.10;;;4.03;;
10465;SDS011;5280;42.600;23.556;2024-02-26T06:16:59;4.67;;;3.90;;
10465;SDS011;5280;42.600;23.556;2024-02-26T06:19:26;4.80;;;4.30;;
10465;SDS011;5280;42.600;23.556;2024-02-26T06:21:56;7.33;;;5.20;;
10465;SDS011;5280;42.600;23.556;2024-02-26T06:24:24;5.70;;;4.73;;
10465;SDS011;5280;42.600;23.556;2024-02-26T06:26:51;4.77;;;4.10;;
10465;SDS011;5280;42.600;23.556;2024-02-26T06:29:18;5.30;;;4.80;;
10465;SDS011;5280;42.600;23.556;2024-02-26T06:31:47;5.70;;;5.03;;
10465;SDS011;5280;42.600;23.556;2024-02-26T06:34:15;6.17;;;4.90;;
10465;SDS011;5280;42.600;23.556;2024-02-26T06:36:45;5.03;;;4.53;;
10465;SDS011;5280;42.600;23.556;2024-02-26T06:39:13;6.93;;;4.07;;
10465;SDS011;5280;42.600;23.556;2024-02-26T06:41:42;5.37;;;4.60;;
10465;SDS011;5280;42.600;23.556;2024-02-26T06:44:11;6.70;;;4.70;;
10465;SDS011;5280;42.600;23.556;2024-02-26T06:46:39;4.77;;;3.90;;
10465;SDS011;5280;42.600;23.556;2024-02-26T06:49:06;4.70;;;4.30;;
10465;SDS011;5280;42.600;23.556;2024-02-26T06:51:33;8.13;;;4.40;;
10465;SDS011;5280;42.600;23.556;2024-02-26T06:54:00;6.17;;;3.93;;
10465;SDS011;5280;42.600;23.556;2024-02-26T06:56:31;5.50;;;4.20;;
10465;SDS011;5280;42.600;23.556;2024-02-26T06:59:00;8.03;;;4.60;;
10465;SDS011;5280;42.600;23.556;2024-02-26T07:01:27;7.43;;;4.60;;
10465;SDS011;5280;42.600;23.556;2024-02-26T07:03:59;4.83;;;4.07;;
10465;SDS011;5280;42.600;23.556;2024-02-26T07:06:26;6.13;;;4.07;;
10465;SDS011;5280;42.600;23.556;2024-02-26T07:08:54;6.23;;;5.00;;
10465;SDS011;5280;42.600;23.556;2024-02-26T07:11:26;5.37;;;4.10;;
10465;SDS011;5280;42.600;23.556;2024-02-26T07:13:53;4.57;;;3.90;;
10465;SDS011;5280;42.600;23.556;2024-02-26T07:16:22;7.60;;;5.23;;
10465;SDS011;5280;42.600;23.556;2024-02-26T07:18:49;5.03;;;4.37;;
10465;SDS011;5280;42.600;23.556;2024-02-26T07:21:16;6.20;;;4.40;;
10465;SDS011;5280;42.600;23.556;2024-02-26T07:23:43;6.63;;;4.90;;
10465;SDS011;5280;42.600;23.556;2024-02-26T07:26:11;5.20;;;4.70;;
10465;SDS011;5280;42.600;23.556;2024-02-26T07:28:38;5.33;;;4.80;;
10465;SDS011;5280;42.600;23.556;2024-02-26T07:31:05;7.90;;;5.23;;
10465;SDS011;5280;42.600;23.556;2024-02-26T07:33:33;5.60;;;5.03;;
10465;SDS011;5280;42.600;23.556;2024-02-26T07:36:00;6.73;;;5.50;;
10465;SDS011;5280;42.600;23.556;2024-02-26T07:38:27;6.13;;;5.53;;
10465;SDS011;5280;42.600;23.556;2024-02-26T07:40:54;6.43;;;4.90;;
10465;SDS011;5280;42.600;23.556;2024-02-26T07:43:22;6.50;;;5.63;;
10465;SDS011;5280;42.600;23.556;2024-02-26T07:45:49;8.53;;;5.17;;
10465;SDS011;5280;42.600;23.556;2024-02-26T07:48:34;7.30;;;5.57;;
10465;SDS011;5280;42.600;23.556;2024-02-26T07:51:02;5.90;;;5.37;;
10465;SDS011;5280;42.600;23.556;2024-02-26T07:53:30;8.60;;;5.53;;
10465;SDS011;5280;42.600;23.556;2024-02-26T07:55:57;6.83;;;5.27;;
10465;SDS011;5280;42.600;23.556;2024-02-26T07:58:25;6.07;;;5.47;;
10465;SDS011;5280;42.600;23.556;2024-02-26T08:00:53;5.83;;;5.27;;
10465;SDS011;5280;42.600;23.556;2024-02-26T08:03:20;9.37;;;5.90;;
10465;SDS011;5280;42.600;23.556;2024-02-26T08:05:48;7.43;;;5.43;;
10465;SDS011;5280;42.600;23.556;2024-02-26T08:08:15;7.97;;;6.03;;
10465;SDS011;5280;42.600;23.556;2024-02-26T08:10:42;5.97;;;5.10;;
10465;SDS011;5280;42.600;23.556;2024-02-26T08:13:10;6.30;;;5.60;;
10465;SDS011;5280;42.600;23.556;2024-02-26T08:15:37;7.20;;;5.03;;
10465;SDS011;5280;42.600;23.556;2024-02-26T08:18:04;7.07;;;5.60;;
10465;SDS011;5280;42.600;23.556;2024-02-26T08:20:32;6.10;;;5.50;;
10465;SDS011;5280;42.600;23.556;2024-02-26T08:23:01;6.30;;;5.70;;
10465;SDS011;5280;42.600;23.556;2024-02-26T08:25:28;6.57;;;5.90;;
10465;SDS011;5280;42.600;23.556;2024-02-26T08:27:55;5.73;;;5.23;;
10465;SDS011;5280;42.600;23.556;2024-02-26T08:30:22;7.47;;;5.60;;
10465;SDS011;5280;42.600;23.556;2024-02-26T08:32:49;7.60;;;5.10;;
10465;SDS011;5280;42.600;23.556;2024-02-26T08:35:18;8.60;;;5.60;;
10465;SDS011;5280;42.600;23.556;2024-02-26T08:37:46;6.43;;;4.73;;
10465;SDS011;5280;42.600;23.556;2024-02-26T08:40:15;6.60;;;5.37;;
10465;SDS011;5280;42.600;23.556;2024-02-26T08:42:44;6.83;;;4.90;;
10465;SDS011;5280;42.600;23.556;2024-02-26T08:45:12;7.33;;;4.90;;
10465;SDS011;5280;42.600;23.556;2024-02-26T08:47:39;6.43;;;4.87;;
10465;SDS011;5280;42.600;23.556;2024-02-26T08:50:06;5.27;;;4.60;;
10465;SDS011;5280;42.600;23.556;2024-02-26T08:52:34;6.10;;;4.73;;
10465;SDS011;5280;42.600;23.556;2024-02-26T08:55:02;5.87;;;5.17;;
10465;SDS011;5280;42.600;23.556;2024-02-26T08:57:31;5.47;;;4.97;;
10465;SDS011;5280;42.600;23.556;2024-02-26T08:59:59;6.40;;;4.87;;
10465;SDS011;5280;42.600;23.556;2024-02-26T09:02:26;6.03;;;5.40;;
10465;SDS011;5280;42.600;23.556;2024-02-26T09:04:53;5.50;;;4.77;;
10465;SDS011;5280;42.600;23.556;2024-02-26T09:07:20;7.23;;;4.97;;
10465;SDS011;5280;42.600;23.556;2024-02-26T09:09:48;6.80;;;4.57;;
10465;SDS011;5280;42.600;23.556;2024-02-26T09:12:15;6.23;;;4.30;;
10465;SDS011;5280;42.600;23.556;2024-02-26T09:14:43;7.13;;;4.70;;
10465;SDS011;5280;42.600;23.556;2024-02-26T09:17:10;5.00;;;4.50;;
10465;SDS011;5280;42.600;23.556;2024-02-26T09:19:37;5.57;;;4.37;;
10465;SDS011;5280;42.600;23.556;2024-02-26T09:22:04;5.60;;;4.40;;
10465;SDS011;5280;42.600;23.556;2024-02-26T09:24:32;4.80;;;4.37;;
10465;SDS011;5280;42.600;23.556;2024-02-26T09:26:59;5.67;;;4.53;;
10465;SDS011;5280;42.600;23.556;2024-02-26T09:29:26;7.17;;;4.20;;
10465;SDS011;5280;42.600;23.556;2024-02-26T09:31:54;5.57;;;4.40;;
10465;SDS011;5280;42.600;23.556;2024-02-26T09:34:21;5.03;;;4.47;;
10465;SDS011;5280;42.600;23.556;2024-02-26T09:36:48;5.67;;;4.53;;
10465;SDS011;5280;42.600;23.556;2024-02-26T09:39:15;4.23;;;3.83;;
10465;SDS011;5280;42.600;23.556;2024-02-26T09:41:46;4.53;;;4.13;;
10465;SDS011;5280;42.600;23.556;2024-02-26T09:44:13;4.80;;;4.27;;
10465;SDS011;5280;42.600;23.556;2024-02-26T09:46:45;5.40;;;4.90;;
10465;SDS011;5280;42.600;23.556;2024-02-26T09:49:15;5.63;;;4.37;;
10465;SDS011;5280;42.600;23.556;2024-02-26T09:51:42;6.43;;;4.70;;
10465;SDS011;5280;42.600;23.556;2024-02-26T09:54:09;4.90;;;4.40;;
10465;SDS011;5280;42.600;23.556;2024-02-26T09:56:39;5.10;;;4.27;;
10465;SDS011;5280;42.600;23.556;2024-02-26T09:59:09;4.50;;;4.10;;
10465;SDS011;5280;42.600;23.556;2024-02-26T10:01:39;4.33;;;3.93;;
10465;SDS011;5280;42.600;23.556;2024-02-26T10:04:09;4.33;;;3.93;;
10465;SDS011;5280;42.600;23.556;2024-02-26T10:06:38;4.50;;;3.93;;
10465;SDS011;5280;42.600;23.556;2024-02-26T10:09:06;3.90;;;3.60;;
10465;SDS011;5280;42.600;23.556;2024-02-26T10:11:41;4.67;;;4.27;;
10465;SDS011;5280;42.600;23.556;2024-02-26T10:14:09;4.73;;;3.87;;
10465;SDS011;5280;42.600;23.556;2024-02-26T10:16:37;4.43;;;4.00;;
10465;SDS011;5280;42.600;23.556;2024-02-26T10:19:04;4.13;;;3.70;;
10465;SDS011;5280;42.600;23.556;2024-02-26T10:21:31;4.37;;;4.07;;
10465;SDS011;5280;42.600;23.556;2024-02-26T10:24:00;4.20;;;3.80;;
10465;SDS011;5280;42.600;23.556;2024-02-26T10:26:26;5.63;;;3.70;;
10465;SDS011;5280;42.600;23.556;2024-02-26T10:28:53;4.30;;;3.90;;
10465;SDS011;5280;42.600;23.556;2024-02-26T10:31:26;4.97;;;4.07;;
10465;SDS011;5280;42.600;23.556;2024-02-26T10:33:55;5.13;;;3.90;;
10465;SDS011;5280;42.600;23.556;2024-02-26T10:36:22;4.40;;;4.00;;
10465;SDS011;5280;42.600;23.556;2024-02-26T10:38:49;4.20;;;3.80;;
10465;SDS011;5280;42.600;23.556;2024-02-26T10:41:17;4.37;;;3.87;;
10465;SDS011;5280;42.600;23.556;2024-02-26T10:43:45;3.57;;;3.27;;
10465;SDS011;5280;42.600;23.556;2024-02-26T10:46:13;3.70;;;3.40;;
10465;SDS011;5280;42.600;23.556;2024-02-26T10:48:40;5.00;;;3.60;;
10465;SDS011;5280;42.600;23.556;2024-02-26T10:51:16;5.53;;;3.60;;
10465;SDS011;5280;42.600;23.556;2024-02-26T10:53:47;4.23;;;3.60;;
10465;SDS011;5280;42.600;23.556;2024-02-26T10:56:20;3.70;;;3.30;;
10465;SDS011;5280;42.600;23.556;2024-02-26T10:58:50;4.60;;;3.27;;
10465;SDS011;5280;42.600;23.556;2024-02-26T11:01:19;3.43;;;2.97;;
10465;SDS011;5280;42.600;23.556;2024-02-26T11:03:47;3.63;;;3.20;;
10465;SDS011;5280;42.600;23.556;2024-02-26T11:06:17;6.47;;;3.20;;
10465;SDS011;5280;42.600;23.556;2024-02-26T11:08:47;4.67;;;3.17;;
10465;SDS011;5280;42.600;23.556;2024-02-26T11:11:14;3.50;;;3.13;;
10465;SDS011;5280;42.600;23.556;2024-02-26T11:13:44;4.67;;;3.77;;
10465;SDS011;5280;42.600;23.556;2024-02-26T11:16:15;3.70;;;3.40;;
10465;SDS011;5280;42.600;23.556;2024-02-26T11:18:45;3.73;;;3.10;;
10465;SDS011;5280;42.600;23.556;2024-02-26T11:21:15;4.47;;;3.07;;
10465;SDS011;5280;42.600;23.556;2024-02-26T11:23:52;3.83;;;3.33;;
10465;SDS011;5280;42.600;23.556;2024-02-26T11:26:20;3.93;;;2.97;;
10465;SDS011;5280;42.600;23.556;2024-02-26T11:28:51;5.67;;;3.20;;
10465;SDS011;5280;42.600;23.556;2024-02-26T11:31:19;5.37;;;3.70;;
10465;SDS011;5280;42.600;23.556;2024-02-26T11:33:52;4.33;;;3.20;;
10465;SDS011;5280;42.600;23.556;2024-02-26T11:36:20;3.27;;;2.90;;
10465;SDS011;5280;42.600;23.556;2024-02-26T11:38:47;5.83;;;3.37;;
10465;SDS011;5280;42.600;23.556;2024-02-26T11:41:16;4.27;;;3.40;;
10465;SDS011;5280;42.600;23.556;2024-02-26T11:43:51;4.17;;;3.50;;
10465;SDS011;5280;42.600;23.556;2024-02-26T11:46:25;5.60;;;3.17;;
10465;SDS011;5280;42.600;23.556;2024-02-26T11:48:56;3.50;;;3.20;;
10465;SDS011;5280;42.600;23.556;2024-02-26T11:51:25;4.03;;;3.17;;
10465;SDS011;5280;42.600;23.556;2024-02-26T11:53:53;5.13;;;3.27;;
10465;SDS011;5280;42.600;23.556;2024-02-26T11:56:23;4.77;;;3.17;;
10465;SDS011;5280;42.600;23.556;2024-02-26T11:59:03;4.47;;;3.17;;
10465;SDS011;5280;42.600;23.556;2024-02-26T12:01:38;3.43;;;2.77;;
10465;SDS011;5280;42.600;23.556;2024-02-26T12:04:13;2.97;;;2.77;;
10465;SDS011;5280;42.600;23.556;2024-02-26T12:06:43;3.23;;;2.90;;
10465;SDS011;5280;42.600;23.556;2024-02-26T12:09:12;7.37;;;3.70;;
10465;SDS011;5280;42.600;23.556;2024-02-26T12:11:40;3.67;;;3.37;;
10465;SDS011;5280;42.600;23.556;2024-02-26T12:14:10;4.57;;;2.97;;
10465;SDS011;5280;42.600;23.556;2024-02-26T12:16:37;4.20;;;2.97;;
10465;SDS011;5280;42.600;23.556;2024-02-26T12:19:05;3.60;;;2.93;;
10465;SDS011;5280;42.600;23.556;2024-02-26T12:21:34;5.27;;;3.20;;
10465;SDS011;5280;42.600;23.556;2024-02-26T12:24:11;3.73;;;2.90;;
10465;SDS011;5280;42.600;23.556;2024-02-26T12:26:41;3.27;;;2.97;;
10465;SDS011;5280;42.600;23.556;2024-02-26T12:29:09;3.47;;;2.80;;
10465;SDS011;5280;42.600;23.556;2024-02-26T12:31:37;3.47;;;3.07;;
10465;SDS011;5280;42.600;23.556;2024-02-26T12:34:06;3.20;;;2.90;;
10465;SDS011;5280;42.600;23.556;2024-02-26T12:36:34;2.87;;;2.40;;
10465;SDS011;5280;42.600;23.556;2024-02-26T12:39:02;2.83;;;2.63;;
10465;SDS011;5280;42.600;23.556;2024-02-26T12:41:31;3.23;;;2.80;;
10465;SDS011;5280;42.600;23.556;2024-02-26T12:44:01;3.20;;;2.87;;
10465;SDS011;5280;42.600;23.556;2024-02-26T12:46:29;3.63;;;2.63;;
10465;SDS011;5280;42.600;23.556;2024-02-26T12:48:57;5.10;;;2.60;;
10465;SDS011;5280;42.600;23.556;2024-02-26T12:51:25;2.90;;;2.57;;
10465;SDS011;5280;42.600;23.556;2024-02-26T12:53:52;5.50;;;2.70;;
10465;SDS011;5280;42.600;23.556;2024-02-26T12:56:23;2.67;;;2.40;;
10465;SDS011;5280;42.600;23.556;2024-02-26T12:58:51;5.17;;;2.87;;
10465;SDS011;5280;42.600;23.556;2024-02-26T13:01:22;3.17;;;2.87;;
10465;SDS011;5280;42.600;23.556;2024-02-26T13:03:52;2.83;;;2.27;;
10465;SDS011;5280;42.600;23.556;2024-02-26T13:06:19;4.57;;;2.93;;
10465;SDS011;5280;42.600;23.556;2024-02-26T13:08:48;3.07;;;2.57;;
10465;SDS011;5280;42.600;23.556;2024-02-26T13:11:15;2.80;;;2.60;;
10465;SDS011;5280;42.600;23.556;2024-02-26T13:13:42;4.43;;;2.97;;
10465;SDS011;5280;42.600;23.556;2024-02-26T13:16:14;2.77;;;2.57;;
10465;SDS011;5280;42.600;23.556;2024-02-26T13:18:42;2.70;;;2.50;;
10465;SDS011;5280;42.600;23.556;2024-02-26T13:21:12;2.57;;;2.37;;
10465;SDS011;5280;42.600;23.556;2024-02-26T13:23:40;4.33;;;2.20;;
10465;SDS011;5280;42.600;23.556;2024-02-26T13:26:08;2.50;;;2.30;;
10465;SDS011;5280;42.600;23.556;2024-02-26T13:28:37;2.87;;;2.43;;
10465;SDS011;5280;42.600;23.556;2024-02-26T13:31:04;3.10;;;2.37;;
10465;SDS011;5280;42.600;23.556;2024-02-26T13:33:33;2.13;;;1.93;;
10465;SDS011;5280;42.600;23.556;2024-02-26T13:36:00;2.20;;;2.00;;
10465;SDS011;5280;42.600;23.556;2024-02-26T13:38:28;2.53;;;2.33;;
10465;SDS011;5280;42.600;23.556;2024-02-26T13:40:57;2.73;;;2.07;;
10465;SDS011;5280;42.600;23.556;2024-02-26T13:43:25;5.07;;;2.37;;
10465;SDS011;5280;42.600;23.556;2024-02-26T13:45:52;3.87;;;2.37;;
10465;SDS011;5280;42.600;23.556;2024-02-26T13:48:19;2.53;;;2.33;;
10465;SDS011;5280;42.600;23.556;2024-02-26T13:50:46;2.03;;;1.90;;
10465;SDS011;5280;42.600;23.556;2024-02-26T13:53:13;4.23;;;2.47;;
10465;SDS011;5280;42.600;23.556;2024-02-26T13:55:41;3.07;;;2.40;;
10465;SDS011;5280;42.600;23.556;2024-02-26T13:58:08;2.60;;;2.17;;
10465;SDS011;5280;42.600;23.556;2024-02-26T14:00:38;2.53;;;2.33;;
10465;SDS011;5280;42.600;23.556;2024-02-26T14:03:06;2.97;;;2.50;;
10465;SDS011;5280;42.600;23.556;2024-02-26T14:05:34;3.97;;;2.40;;
10465;SDS011;5280;42.600;23.556;2024-02-26T14:08:01;3.80;;;2.40;;
10465;SDS011;5280;42.600;23.556;2024-02-26T14:10:28;3.07;;;2.80;;
10465;SDS011;5280;42.600;23.556;2024-02-26T14:12:58;5.00;;;2.73;;
10465;SDS011;5280;42.600;23.556;2024-02-26T14:15:25;2.40;;;2.20;;
10465;SDS011;5280;42.600;23.556;2024-02-26T14:17:53;4.97;;;2.50;;
10465;SDS011;5280;42.600;23.556;2024-02-26T14:20:21;3.67;;;2.60;;
10465;SDS011;5280;42.600;23.556;2024-02-26T14:22:48;4.40;;;2.73;;
10465;SDS011;5280;42.600;23.556;2024-02-26T14:25:16;2.80;;;2.50;;
10465;SDS011;5280;42.600;23.556;2024-02-26T14:27:44;4.40;;;2.57;;
10465;SDS011;5280;42.600;23.556;2024-02-26T14:30:13;4.90;;;3.00;;
10465;SDS011;5280;42.600;23.556;2024-02-26T14:32:41;3.27;;;2.60;;
10465;SDS011;5280;42.600;23.556;2024-02-26T14:35:08;5.60;;;3.23;;
10465;SDS011;5280;42.600;23.556;2024-02-26T14:37:36;4.87;;;2.87;;
10465;SDS011;5280;42.600;23.556;2024-02-26T14:40:03;3.10;;;2.70;;
10465;SDS011;5280;42.600;23.556;2024-02-26T14:42:31;4.80;;;3.10;;
10465;SDS011;5280;42.600;23.556;2024-02-26T14:44:59;3.57;;;2.57;;
10465;SDS011;5280;42.600;23.556;2024-02-26T14:47:27;3.70;;;2.70;;
10465;SDS011;5280;42.600;23.556;2024-02-26T14:49:54;3.63;;;2.60;;
10465;SDS011;5280;42.600;23.556;2024-02-26T14:52:22;5.57;;;2.80;;